General Maynard, Brazil
Current Conditions -  °F | °C
As of 3:00 AM on Friday 31 Oct 2014 (Local Time) from SBAR Reporting Station
Scattered Clouds Scattered Clouds  
Wind Chill: 77°   Ceiling: Unl
Heat Index: 79°   Visibility: 6mi
Dew Point: 68°   Wind: 13mph
Humidity: 74%   Direction: 110°ESE
Pressure: 29.91"   Gusts: NA
Location:  10.69°S, 36.98°W
Report Text: SBAR 310600Z 11011KT 9999 SCT016 25/20 Q1013
Loading
Personal Weather Stations






























Interactive Weather Map
Tropical Storm Tracking
New forecast layout! Learn more

10-Day Weather Forecast

Advertisements
Track Severe Weather on mobile